Time;durP1;ratioP1;P1;durP2;ratioP2;P2;SDS_P1;SDS_P2;PMS_P1;PMS_P2;Temp;Humidity;BMP_temperature;BMP_pressure;BME280_temperature;BME280_humidity;BME280_pressure;Samples;Min_cycle;Max_cycle;Signal;HPM_P1;HPM_P2
2023/02/12 00:01:23;;;;;;;;;;;6.90;1.00;;;;;;5087674;28;19923;-74
2023/02/12 00:03:48;;;;;;;;;;;6.90;1.00;;;;;;5090864;28;19909;-75
2023/02/12 00:06:20;;;;;;;;;;;6.90;1.00;;;;;;5084938;28;20050;-75
2023/02/12 00:08:48;;;;;;;;;;;6.90;1.00;;;;;;5087450;28;19915;-75
2023/02/12 00:11:15;;;;;;;;;;;6.90;1.00;;;;;;5088946;28;19912;-75
2023/02/12 00:13:50;;;;;;;;;;;6.90;1.00;;;;;;5077827;28;19909;-74
2023/02/12 00:16:21;;;;;;;;;;;6.90;1.00;;;;;;5075873;28;19908;-75
2023/02/12 00:18:51;;;;;;;;;;;6.90;1.00;;;;;;5086947;28;19916;-74
2023/02/12 00:24:20;;;;;;;;;;;6.90;1.00;;;;;;5078620;28;19916;-84
2023/02/12 00:33:04;;;;;;;;;;;6.90;1.00;;;;;;5094492;28;19930;-84
2023/02/12 00:35:30;;;;;;;;;;;6.80;1.00;;;;;;5097044;28;19936;-75
2023/02/12 00:37:56;;;;;;;;;;;6.80;1.00;;;;;;5084393;28;19944;-75
2023/02/12 00:40:22;;;;;;;;;;;6.80;1.00;;;;;;5096877;28;19908;-75
2023/02/12 00:42:56;;;;;;;;;;;6.90;1.00;;;;;;5097898;28;19912;-75
2023/02/12 00:45:38;;;;;;;;;;;6.90;1.00;;;;;;5081965;28;19995;-74
2023/02/12 00:48:04;;;;;;;;;;;6.90;1.00;;;;;;5112435;28;19911;-75
2023/02/12 00:50:32;;;;;;;;;;;6.90;1.00;;;;;;5091824;28;20244;-83
2023/02/12 00:56:01;;;;;;;;;;;6.80;1.00;;;;;;5077776;28;19916;-84
2023/02/12 01:10:36;;;;;;;;;;;6.70;1.00;;;;;;5081259;28;19915;-84
2023/02/12 01:22:20;;;;;;;;;;;6.70;1.00;;;;;;5090644;28;19916;-74
2023/02/12 01:24:56;;;;;;;;;;;6.70;1.00;;;;;;5079431;28;19943;-74
2023/02/12 01:27:22;;;;;;;;;;;6.70;1.00;;;;;;5078846;28;19912;-74
2023/02/12 01:29:50;;;;;;;;;;;6.60;1.00;;;;;;5083596;28;19991;-75
2023/02/12 01:32:38;;;;;;;;;;;6.60;1.00;;;;;;5094508;28;19908;-75
2023/02/12 01:35:09;;;;;;;;;;;6.60;1.00;;;;;;5092617;28;20256;-75
2023/02/12 01:37:38;;;;;;;;;;;6.60;1.00;;;;;;5097213;28;19954;-74
2023/02/12 01:40:21;;;;;;;;;;;6.60;1.00;;;;;;5099079;28;19908;-74
2023/02/12 01:42:59;;;;;;;;;;;6.60;1.00;;;;;;5076581;28;20346;-75
2023/02/12 01:45:24;;;;;;;;;;;6.60;1.00;;;;;;5092673;28;19955;-75
2023/02/12 01:48:02;;;;;;;;;;;6.70;1.00;;;;;;5086098;28;20007;-75
2023/02/12 01:50:28;;;;;;;;;;;6.70;1.00;;;;;;5076358;28;20429;-75
2023/02/12 01:56:14;;;;;;;;;;;6.70;1.00;;;;;;5079085;28;20383;-84
2023/02/12 01:58:41;;;;;;;;;;;6.70;1.00;;;;;;5067009;28;19958;-83
2023/02/12 02:01:18;;;;;;;;;;;6.70;1.00;;;;;;5076816;28;20374;-84
2023/02/12 02:03:52;;;;;;;;;;;6.70;1.00;;;;;;5075054;28;19915;-84
2023/02/12 02:06:46;;;;;;;;;;;6.70;1.00;;;;;;5059162;28;20310;-84
2023/02/12 02:15:32;;;;;;;;;;;6.70;1.00;;;;;;5012803;28;19940;-84
2023/02/12 02:21:12;;;;;;;;;;;6.70;1.00;;;;;;5001631;28;19940;-75
2023/02/12 02:23:38;;;;;;;;;;;6.70;1.00;;;;;;4997583;28;20319;-75
2023/02/12 02:26:21;;;;;;;;;;;6.80;1.00;;;;;;4999529;28;19922;-75
2023/02/12 02:28:58;;;;;;;;;;;6.70;1.00;;;;;;4994175;28;19910;-74
2023/02/12 02:31:38;;;;;;;;;;;6.70;1.00;;;;;;5003785;28;19914;-75
2023/02/12 02:34:22;;;;;;;;;;;6.80;1.00;;;;;;5013721;28;20325;-75
2023/02/12 02:43:16;;;;;;;;;;;6.70;1.00;;;;;;5013805;28;19920;-84
2023/02/12 02:51:49;;;;;;;;;;;6.70;1.00;;;;;;4993151;28;20289;-74
2023/02/12 02:54:36;;;;;;;;;;;6.80;1.00;;;;;;4986195;28;20453;-74
2023/02/12 02:57:14;;;;;;;;;;;6.70;1.00;;;;;;4974430;28;19914;-74
2023/02/12 02:59:55;;;;;;;;;;;6.70;1.00;;;;;;4992477;28;20049;-75
2023/02/12 03:02:28;;;;;;;;;;;6.80;1.00;;;;;;4991836;28;19920;-74
2023/02/12 03:05:14;;;;;;;;;;;6.80;1.00;;;;;;4988899;28;19914;-74
2023/02/12 03:07:42;;;;;;;;;;;6.80;1.00;;;;;;4988128;28;19913;-74
2023/02/12 03:10:17;;;;;;;;;;;6.80;1.00;;;;;;4988884;28;19949;-74
2023/02/12 03:12:50;;;;;;;;;;;6.80;1.00;;;;;;4985193;28;20377;-74
2023/02/12 03:15:50;;;;;;;;;;;6.80;1.00;;;;;;4990756;28;20409;-74
2023/02/12 03:18:21;;;;;;;;;;;6.80;1.00;;;;;;4981202;28;19917;-74
2023/02/12 03:20:52;;;;;;;;;;;6.80;1.00;;;;;;4980512;28;19918;-74
2023/02/12 03:26:35;;;;;;;;;;;6.80;1.00;;;;;;5095383;28;20004;-84
2023/02/12 03:32:03;;;;;;;;;;;6.70;1.00;;;;;;5079166;28;19951;-84
2023/02/12 03:37:38;;;;;;;;;;;6.70;1.00;;;;;;5094895;28;20350;-75
2023/02/12 03:40:16;;;;;;;;;;;6.70;1.00;;;;;;5081177;28;19913;-75
2023/02/12 03:42:46;;;;;;;;;;;6.70;1.00;;;;;;5094664;28;19958;-75
2023/02/12 03:48:41;;;;;;;;;;;6.80;1.00;;;;;;5094247;28;19923;-75
2023/02/12 03:51:21;;;;;;;;;;;6.80;1.00;;;;;;5077691;28;19912;-75
2023/02/12 03:56:52;;;;;;;;;;;6.80;1.00;;;;;;5094869;28;19915;-84
2023/02/12 04:02:21;;;;;;;;;;;6.70;1.00;;;;;;5075557;28;19915;-83
2023/02/12 04:07:51;;;;;;;;;;;6.70;1.00;;;;;;5094815;28;19918;-75
2023/02/12 04:10:16;;;;;;;;;;;6.80;1.00;;;;;;5076298;28;20367;-74
2023/02/12 04:13:05;;;;;;;;;;;6.80;1.00;;;;;;5077068;28;20106;-75
2023/02/12 04:15:51;;;;;;;;;;;6.80;1.00;;;;;;5081213;28;20321;-75
2023/02/12 04:18:26;;;;;;;;;;;6.70;1.00;;;;;;5082112;28;19943;-75
2023/02/12 04:20:52;;;;;;;;;;;6.70;1.00;;;;;;5085516;28;19916;-75
2023/02/12 04:23:28;;;;;;;;;;;6.70;1.00;;;;;;5089319;28;19908;-74
2023/02/12 04:26:03;;;;;;;;;;;6.80;1.00;;;;;;5080619;28;19908;-74
2023/02/12 04:28:31;;;;;;;;;;;6.80;1.00;;;;;;5085894;28;19908;-75
2023/02/12 04:31:10;;;;;;;;;;;6.70;1.00;;;;;;5082619;28;19916;-75
2023/02/12 04:33:43;;;;;;;;;;;6.70;1.00;;;;;;5087101;28;19960;-74
2023/02/12 04:36:17;;;;;;;;;;;6.80;1.00;;;;;;5088615;28;19991;-74
2023/02/12 04:38:49;;;;;;;;;;;6.80;1.00;;;;;;5094366;28;20015;-75
2023/02/12 04:41:21;;;;;;;;;;;6.80;1.00;;;;;;5093840;28;19909;-74
2023/02/12 04:44:22;;;;;;;;;;;6.80;1.00;;;;;;5079682;28;19912;-75
2023/02/12 04:46:48;;;;;;;;;;;6.80;1.00;;;;;;5031420;28;20019;-75
2023/02/12 04:49:20;;;;;;;;;;;6.80;1.00;;;;;;5031343;28;20424;-75
2023/02/12 04:51:46;;;;;;;;;;;6.80;1.00;;;;;;5036602;28;19910;-74
2023/02/12 04:54:32;;;;;;;;;;;6.80;1.00;;;;;;5032845;28;20434;-84
2023/02/12 05:00:01;;;;;;;;;;;6.80;1.00;;;;;;5041660;28;19924;-84
2023/02/12 05:08:32;;;;;;;;;;;6.80;1.00;;;;;;5020012;28;20034;-74
2023/02/12 05:11:07;;;;;;;;;;;6.80;1.00;;;;;;5031288;28;20023;-74
2023/02/12 05:13:38;;;;;;;;;;;6.80;1.00;;;;;;5035750;28;19968;-74
2023/02/12 05:16:08;;;;;;;;;;;6.80;1.00;;;;;;5031080;28;19913;-74
2023/02/12 05:18:34;;;;;;;;;;;6.80;1.00;;;;;;5025636;28;19967;-75
2023/02/12 05:21:00;;;;;;;;;;;6.80;1.00;;;;;;5061761;28;20002;-75
2023/02/12 05:23:50;;;;;;;;;;;6.80;1.00;;;;;;5092694;28;19908;-85
2023/02/12 05:29:20;;;;;;;;;;;6.80;1.00;;;;;;5081223;28;19915;-84
2023/02/12 05:34:49;;;;;;;;;;;6.80;1.00;;;;;;5097377;28;19914;-85
2023/02/12 05:40:17;;;;;;;;;;;6.80;1.00;;;;;;5082234;28;19920;-84
2023/02/12 05:42:56;;;;;;;;;;;6.80;1.00;;;;;;5062575;28;19912;-84
2023/02/12 05:52:02;;;;;;;;;;;6.90;1.00;;;;;;5088014;28;19914;-85
2023/02/12 05:54:50;;;;;;;;;;;6.90;1.00;;;;;;5086030;28;20041;-74
2023/02/12 05:57:20;;;;;;;;;;;6.90;1.00;;;;;;5082869;28;19915;-75
2023/02/12 05:59:46;;;;;;;;;;;6.80;1.00;;;;;;5095746;28;19919;-74
2023/02/12 06:02:11;;;;;;;;;;;6.80;1.00;;;;;;5087236;28;19909;-75
2023/02/12 06:04:37;;;;;;;;;;;6.90;1.00;;;;;;5086289;28;20237;-75
2023/02/12 06:07:08;;;;;;;;;;;6.90;1.00;;;;;;5085874;28;20279;-74
2023/02/12 06:09:38;;;;;;;;;;;6.90;1.00;;;;;;5097117;28;19912;-85
2023/02/12 06:21:14;;;;;;;;;;;6.90;1.00;;;;;;5095538;28;20025;-84
2023/02/12 06:23:51;;;;;;;;;;;6.90;1.00;;;;;;5075925;28;20302;-84
2023/02/12 06:29:56;;;;;;;;;;;6.90;1.00;;;;;;5091308;28;19962;-84
2023/02/12 06:35:24;;;;;;;;;;;6.90;1.00;;;;;;5095257;28;20275;-76
2023/02/12 06:46:59;;;;;;;;;;;6.90;1.00;;;;;;5094595;28;20026;-79
2023/02/12 06:49:24;;;;;;;;;;;6.90;1.00;;;;;;5081958;28;19908;-80
2023/02/12 06:57:59;;;;;;;;;;;7.00;1.00;;;;;;5085216;28;19915;-78
2023/02/12 07:06:32;;;;;;;;;;;7.00;1.00;;;;;;5082364;28;19923;-78
2023/02/12 07:15:03;;;;;;;;;;;7.10;1.00;;;;;;5092444;28;19920;-78
2023/02/12 07:23:35;;;;;;;;;;;7.20;1.00;;;;;;5078295;28;19923;-78
2023/02/12 07:26:11;;;;;;;;;;;7.20;1.00;;;;;;5094418;28;19908;-76
2023/02/12 07:28:39;;;;;;;;;;;7.20;1.00;;;;;;5094541;28;19957;-76
2023/02/12 07:31:16;;;;;;;;;;;7.20;1.00;;;;;;5089544;28;19918;-76
2023/02/12 07:37:08;;;;;;;;;;;7.30;1.00;;;;;;5087670;28;20302;-75
2023/02/12 07:39:38;;;;;;;;;;;7.30;1.00;;;;;;5094770;28;20002;-77
2023/02/12 07:45:07;;;;;;;;;;;7.40;1.00;;;;;;5084114;28;20022;-76
2023/02/12 07:47:34;;;;;;;;;;;7.40;1.00;;;;;;5082562;28;20428;-76
2023/02/12 07:56:09;;;;;;;;;;;7.60;1.00;;;;;;5083462;28;19919;-74
2023/02/12 07:58:51;;;;;;;;;;;7.70;1.00;;;;;;5080770;28;19908;-74
2023/02/12 08:01:31;;;;;;;;;;;7.70;1.00;;;;;;5079903;28;19916;-76
2023/02/12 08:04:20;;;;;;;;;;;7.80;1.00;;;;;;5090599;28;19908;-76
2023/02/12 08:06:52;;;;;;;;;;;7.80;1.00;;;;;;5089712;28;19951;-74
2023/02/12 08:09:20;;;;;;;;;;;7.80;1.00;;;;;;5090136;28;19974;-74
2023/02/12 08:11:46;;;;;;;;;;;7.90;1.00;;;;;;5085566;28;20271;-70
2023/02/12 08:14:13;;;;;;;;;;;7.90;1.00;;;;;;5073425;28;19918;-71
2023/02/12 08:16:40;;;;;;;;;;;8.00;1.00;;;;;;5083546;28;19912;-70
2023/02/12 08:19:06;;;;;;;;;;;8.10;1.00;;;;;;5086839;28;19919;-71
2023/02/12 08:21:32;;;;;;;;;;;8.20;1.00;;;;;;5082701;28;19957;-71
2023/02/12 08:23:58;;;;;;;;;;;8.30;1.00;;;;;;5079189;28;19920;-71
2023/02/12 08:26:28;;;;;;;;;;;8.40;1.00;;;;;;5079135;28;20011;-73
2023/02/12 08:29:14;;;;;;;;;;;8.40;1.00;;;;;;5074992;28;20003;-74
2023/02/12 08:31:46;;;;;;;;;;;8.50;1.00;;;;;;5094178;28;19909;-73
2023/02/12 08:34:32;;;;;;;;;;;8.60;1.00;;;;;;5085590;28;19987;-73
2023/02/12 08:37:08;;;;;;;;;;;8.60;1.00;;;;;;5080093;28;19908;-74
2023/02/12 08:39:34;;;;;;;;;;;8.70;1.00;;;;;;5086837;28;19919;-73
2023/02/12 08:45:03;;;;;;;;;;;8.90;1.00;;;;;;5092268;28;20033;-73
2023/02/12 08:47:46;;;;;;;;;;;8.90;1.00;;;;;;5085058;28;20014;-73
2023/02/12 08:50:32;;;;;;;;;;;9.00;1.00;;;;;;5082681;28;19919;-75
2023/02/12 08:56:00;;;;;;;;;;;9.10;1.00;;;;;;5076657;28;19923;-70
2023/02/12 08:58:26;;;;;;;;;;;9.20;1.00;;;;;;5081840;28;20287;-70
2023/02/12 09:00:52;;;;;;;;;;;9.30;1.00;;;;;;5084302;28;19991;-71
2023/02/12 09:03:17;;;;;;;;;;;9.40;1.00;;;;;;5082128;28;19912;-70
2023/02/12 09:05:43;;;;;;;;;;;9.50;1.00;;;;;;5096085;28;19999;-71
2023/02/12 09:08:08;;;;;;;;;;;9.50;1.00;;;;;;5091537;28;20362;-70
2023/02/12 09:10:39;;;;;;;;;;;9.70;1.00;;;;;;5079684;28;19916;-73
2023/02/12 09:13:05;;;;;;;;;;;9.70;1.00;;;;;;5085470;28;20279;-73
2023/02/12 09:15:44;;;;;;;;;;;9.80;1.00;;;;;;5087754;28;20360;-74
2023/02/12 09:18:27;;;;;;;;;;;9.90;1.00;;;;;;5088831;28;20002;-74
2023/02/12 09:21:13;;;;;;;;;;;10.00;1.00;;;;;;5093735;28;20351;-74
2023/02/12 09:23:39;;;;;;;;;;;10.10;1.00;;;;;;5093153;28;19916;-73
2023/02/12 09:26:21;;;;;;;;;;;10.20;1.00;;;;;;5089829;28;20326;-73
2023/02/12 09:28:56;;;;;;;;;;;10.10;1.00;;;;;;5093212;28;20359;-74
2023/02/12 09:31:25;;;;;;;;;;;10.20;1.00;;;;;;5087509;28;20006;-73
2023/02/12 09:33:52;;;;;;;;;;;10.30;1.00;;;;;;5092866;28;19912;-73
2023/02/12 09:36:20;;;;;;;;;;;10.40;1.00;;;;;;5086182;28;19908;-73
2023/02/12 09:38:47;;;;;;;;;;;10.50;1.00;;;;;;5094620;28;20008;-73
2023/02/12 09:44:28;;;;;;;;;;;10.70;1.00;;;;;;5086291;28;19919;-73
2023/02/12 09:53:17;;;;;;;;;;;10.90;1.00;;;;;;5095385;28;19919;-90
2023/02/12 10:04:52;;;;;;;;;;;11.00;1.00;;;;;;5091042;28;19953;-75
2023/02/12 10:07:26;;;;;;;;;;;11.00;1.00;;;;;;5088991;28;19931;-75
2023/02/12 10:10:03;;;;;;;;;;;11.10;1.00;;;;;;5086755;28;19912;-79
2023/02/12 10:13:04;;;;;;;;;;;11.20;1.00;;;;;;5082850;28;20301;-74
2023/02/12 10:15:50;;;;;;;;;;;11.30;1.00;;;;;;5008088;28;19913;-75
2023/02/12 10:18:32;;;;;;;;;;;11.30;1.00;;;;;;5002440;28;19909;-75
2023/02/12 10:21:08;;;;;;;;;;;11.40;1.00;;;;;;5016533;28;20269;-77
2023/02/12 10:23:43;;;;;;;;;;;11.40;1.00;;;;;;5003246;28;20320;-75
2023/02/12 10:26:11;;;;;;;;;;;11.40;1.00;;;;;;5007746;28;19921;-75
2023/02/12 10:28:40;;;;;;;;;;;11.40;1.00;;;;;;5004917;28;20284;-75
2023/02/12 10:31:07;;;;;;;;;;;11.50;1.00;;;;;;5001751;28;19913;-75
2023/02/12 10:33:47;;;;;;;;;;;11.50;1.00;;;;;;5013166;28;19945;-76
2023/02/12 10:36:32;;;;;;;;;;;11.70;1.00;;;;;;5015578;28;19920;-75
2023/02/12 10:42:32;;;;;;;;;;;11.90;1.00;;;;;;5010782;28;19920;-75
2023/02/12 10:45:16;;;;;;;;;;;11.90;1.00;;;;;;5010731;28;19945;-75
2023/02/12 10:48:02;;;;;;;;;;;11.90;1.00;;;;;;5013221;28;19921;-75
2023/02/12 10:50:44;;;;;;;;;;;12.00;1.00;;;;;;5076208;28;19908;-73
2023/02/12 10:53:15;;;;;;;;;;;12.10;1.00;;;;;;5095503;28;19908;-74
2023/02/12 10:56:05;;;;;;;;;;;12.10;1.00;;;;;;5095437;28;20283;-73
2023/02/12 10:58:30;;;;;;;;;;;12.20;1.00;;;;;;5082124;28;19919;-73
2023/02/12 11:00:58;;;;;;;;;;;12.30;1.00;;;;;;5081738;28;20279;-73
2023/02/12 11:03:28;;;;;;;;;;;12.40;1.00;;;;;;5081857;28;19912;-74
2023/02/12 11:06:10;;;;;;;;;;;12.30;1.00;;;;;;5081667;28;19919;-76
2023/02/12 11:08:37;;;;;;;;;;;12.40;1.00;;;;;;5095272;28;19937;-74
2023/02/12 11:11:05;;;;;;;;;;;12.50;1.00;;;;;;5080589;28;19954;-73
2023/02/12 11:13:31;;;;;;;;;;;12.60;1.00;;;;;;5074896;28;20276;-70
2023/02/12 11:15:57;;;;;;;;;;;12.60;1.00;;;;;;5091273;28;19909;-70
2023/02/12 11:18:24;;;;;;;;;;;12.80;1.00;;;;;;5094655;28;19909;-70
2023/02/12 11:20:52;;;;;;;;;;;12.90;1.00;;;;;;5094550;28;19915;-70
2023/02/12 11:23:23;;;;;;;;;;;13.00;1.00;;;;;;5090008;28;19913;-70
2023/02/12 11:25:57;;;;;;;;;;;13.10;1.00;;;;;;5074375;28;20312;-69
2023/02/12 11:28:22;;;;;;;;;;;13.10;1.00;;;;;;5086313;28;19954;-69
2023/02/12 11:30:51;;;;;;;;;;;13.20;1.00;;;;;;5092217;28;19947;-70
2023/02/12 11:33:36;;;;;;;;;;;13.10;1.00;;;;;;5081914;28;20295;-69
2023/02/12 11:36:04;;;;;;;;;;;13.10;1.00;;;;;;5082749;28;19934;-70
2023/02/12 11:38:31;;;;;;;;;;;13.10;1.00;;;;;;5080978;28;19916;-70
2023/02/12 11:41:05;;;;;;;;;;;13.10;1.00;;;;;;5094319;28;19914;-70
2023/02/12 11:43:32;;;;;;;;;;;13.10;1.00;;;;;;5093958;28;20331;-70
2023/02/12 11:45:59;;;;;;;;;;;13.10;1.00;;;;;;5080271;28;20427;-69
2023/02/12 11:48:32;;;;;;;;;;;13.00;1.00;;;;;;5087154;28;20208;-69
2023/02/12 11:51:04;;;;;;;;;;;13.00;1.00;;;;;;5085407;28;20409;-70
2023/02/12 11:53:35;;;;;;;;;;;13.00;1.00;;;;;;5076592;28;20692;-70
2023/02/12 11:56:03;;;;;;;;;;;13.00;1.00;;;;;;5075773;28;19914;-70
2023/02/12 11:58:28;;;;;;;;;;;13.20;1.00;;;;;;5075550;28;20414;-70
2023/02/12 12:00:57;;;;;;;;;;;13.20;1.00;;;;;;5082620;28;19951;-70
2023/02/12 12:03:35;;;;;;;;;;;13.20;1.00;;;;;;5077976;28;19916;-69
2023/02/12 12:06:16;;;;;;;;;;;13.20;1.00;;;;;;5088253;28;19989;-69
2023/02/12 12:08:45;;;;;;;;;;;13.20;1.00;;;;;;5081955;28;19912;-69
2023/02/12 12:11:34;;;;;;;;;;;13.20;1.00;;;;;;5085741;28;20008;-70
2023/02/12 12:14:26;;;;;;;;;;;13.20;1.00;;;;;;5078073;28;20336;-76
2023/02/12 12:20:20;;;;;;;;;;;13.10;1.00;;;;;;5073394;28;20421;-77
2023/02/12 12:23:14;;;;;;;;;;;13.20;1.00;;;;;;5092484;28;19947;-78
2023/02/12 12:26:00;;;;;;;;;;;13.30;1.00;;;;;;5094439;28;20240;-77
2023/02/12 12:28:45;;;;;;;;;;;13.40;1.00;;;;;;5089726;28;19920;-77
2023/02/12 12:31:13;;;;;;;;;;;13.50;1.00;;;;;;5096159;28;19908;-77
2023/02/12 12:33:50;;;;;;;;;;;13.30;1.00;;;;;;5097345;28;20270;-77
2023/02/12 12:36:40;;;;;;;;;;;13.30;1.00;;;;;;5086785;28;20275;-78
2023/02/12 12:39:17;;;;;;;;;;;13.30;1.00;;;;;;5097036;28;19954;-77
2023/02/12 12:42:06;;;;;;;;;;;13.40;1.00;;;;;;5098192;28;19908;-77
2023/02/12 12:44:56;;;;;;;;;;;13.50;1.00;;;;;;5088583;28;19957;-77
2023/02/12 12:47:57;;;;;;;;;;;13.70;1.00;;;;;;5097887;28;19916;-77
2023/02/12 12:56:40;;;;;;;;;;;13.70;1.00;;;;;;5095510;28;21460;-77
2023/02/12 13:02:27;;;;;;;;;;;13.90;1.00;;;;;;5087310;28;20424;-78
2023/02/12 13:11:20;;;;;;;;;;;14.20;1.00;;;;;;5079524;28;20328;-77
2023/02/12 13:16:58;;;;;;;;;;;14.50;1.00;;;;;;5082341;28;19918;-85
2023/02/12 13:19:45;;;;;;;;;;;14.20;1.00;;;;;;5078156;28;20005;-85
2023/02/12 13:28:28;;;;;;;;;;;13.60;1.00;;;;;;5095066;28;19959;-78
2023/02/12 13:37:00;;;;;;;;;;;13.50;1.00;;;;;;5096961;28;19942;-77
2023/02/12 13:42:52;;;;;;;;;;;13.60;1.00;;;;;;5095223;28;19920;-77
2023/02/12 13:51:27;;;;;;;;;;;13.40;1.00;;;;;;5089858;28;19977;-77
2023/02/12 13:57:32;;;;;;;;;;;13.20;1.00;;;;;;5096539;28;19914;-77
2023/02/12 14:00:20;;;;;;;;;;;13.20;1.00;;;;;;5096926;28;19995;-78
2023/02/12 14:02:56;;;;;;;;;;;13.10;1.00;;;;;;5096620;28;19954;-75
2023/02/12 14:05:39;;;;;;;;;;;13.00;1.00;;;;;;5081924;28;19912;-77
2023/02/12 14:08:32;;;;;;;;;;;12.70;1.00;;;;;;5089897;28;20416;-76
2023/02/12 14:11:17;;;;;;;;;;;12.70;1.00;;;;;;5079117;28;20382;-75
2023/02/12 14:14:05;;;;;;;;;;;12.70;1.00;;;;;;5077522;28;19919;-75
2023/02/12 14:16:31;;;;;;;;;;;12.70;1.00;;;;;;5081296;28;19912;-75
2023/02/12 14:22:23;;;;;;;;;;;12.50;1.00;;;;;;5093162;28;19958;-76
2023/02/12 14:24:50;;;;;;;;;;;12.40;1.00;;;;;;4994367;28;20465;-75
2023/02/12 14:27:20;;;;;;;;;;;12.40;1.00;;;;;;4984508;28;19918;-74
2023/02/12 14:30:04;;;;;;;;;;;12.50;1.00;;;;;;4985374;28;19960;-75
2023/02/12 14:32:49;;;;;;;;;;;12.50;1.00;;;;;;4991328;28;20356;-75
2023/02/12 14:35:34;;;;;;;;;;;12.40;1.00;;;;;;4987091;28;19913;-75
2023/02/12 14:38:01;;;;;;;;;;;12.30;1.00;;;;;;4984960;28;19953;-75
2023/02/12 14:40:32;;;;;;;;;;;12.40;1.00;;;;;;4992712;28;19910;-77
2023/02/12 14:42:58;;;;;;;;;;;12.50;1.00;;;;;;4994160;28;20304;-83
2023/02/12 14:45:35;;;;;;;;;;;12.50;1.00;;;;;;4994390;28;20001;-74
2023/02/12 14:48:28;;;;;;;;;;;12.50;1.00;;;;;;4993992;28;19917;-75
2023/02/12 14:50:57;;;;;;;;;;;12.50;1.00;;;;;;4994021;28;20278;-75
2023/02/12 14:53:56;;;;;;;;;;;12.50;1.00;;;;;;4989801;28;19958;-76
2023/02/12 14:56:50;;;;;;;;;;;12.50;1.00;;;;;;4989204;28;20076;-75
2023/02/12 14:59:44;;;;;;;;;;;12.50;1.00;;;;;;4985890;28;19914;-75
2023/02/12 15:02:28;;;;;;;;;;;12.50;1.00;;;;;;5049294;28;19909;-75
2023/02/12 15:08:02;;;;;;;;;;;12.30;1.00;;;;;;5094797;28;19919;-77
2023/02/12 15:10:34;;;;;;;;;;;12.20;1.00;;;;;;5095410;28;19990;-76
2023/02/12 15:16:08;;;;;;;;;;;11.90;1.00;;;;;;5090677;28;19915;-75
2023/02/12 15:18:40;;;;;;;;;;;11.90;1.00;;;;;;5083030;28;19983;-76
2023/02/12 15:21:06;;;;;;;;;;;11.90;1.00;;;;;;5093224;28;20398;-75
2023/02/12 15:23:40;;;;;;;;;;;11.90;1.00;;;;;;5091347;28;19916;-76
2023/02/12 15:26:16;;;;;;;;;;;11.90;1.00;;;;;;5075101;28;20003;-78
2023/02/12 15:32:09;;;;;;;;;;;11.60;1.00;;;;;;5095122;28;19915;-75
2023/02/12 15:34:40;;;;;;;;;;;11.50;1.00;;;;;;5084449;28;19912;-75
2023/02/12 15:37:15;;;;;;;;;;;11.30;1.00;;;;;;5079150;28;19913;-75
2023/02/12 15:42:57;;;;;;;;;;;11.30;1.00;;;;;;5081850;28;19976;-76
2023/02/12 15:45:26;;;;;;;;;;;11.30;1.00;;;;;;5092136;28;19923;-75
2023/02/12 15:48:04;;;;;;;;;;;11.30;1.00;;;;;;5094389;28;19912;-76
2023/02/12 15:53:39;;;;;;;;;;;11.30;1.00;;;;;;5087587;28;19951;-75
2023/02/12 15:56:11;;;;;;;;;;;11.30;1.00;;;;;;5078795;28;19916;-75
2023/02/12 15:58:56;;;;;;;;;;;11.20;1.00;;;;;;5094027;28;19915;-76
2023/02/12 16:01:26;;;;;;;;;;;11.10;1.00;;;;;;5091672;28;19912;-76
2023/02/12 16:03:58;;;;;;;;;;;11.00;1.00;;;;;;5078295;28;20268;-75
2023/02/12 16:06:51;;;;;;;;;;;11.00;1.00;;;;;;5093588;28;19919;-76
2023/02/12 16:09:29;;;;;;;;;;;11.00;1.00;;;;;;5080604;28;19962;-76
2023/02/12 16:11:59;;;;;;;;;;;11.00;1.00;;;;;;5094563;28;19937;-76
2023/02/12 16:14:44;;;;;;;;;;;10.90;1.00;;;;;;5080945;28;19962;-75
2023/02/12 16:17:28;;;;;;;;;;;10.80;1.00;;;;;;5092741;28;19908;-75
2023/02/12 16:23:16;;;;;;;;;;;10.60;1.00;;;;;;5093667;28;19961;-75
2023/02/12 16:26:03;;;;;;;;;;;10.40;1.00;;;;;;5082205;28;19916;-75
2023/02/12 16:28:33;;;;;;;;;;;10.30;1.00;;;;;;5094146;28;19912;-75
2023/02/12 16:34:03;;;;;;;;;;;10.00;1.00;;;;;;5078015;28;19934;-75
2023/02/12 16:36:45;;;;;;;;;;;9.90;1.00;;;;;;5093842;28;19977;-76
2023/02/12 16:39:45;;;;;;;;;;;9.80;1.00;;;;;;5082600;28;19908;-76
2023/02/12 16:42:18;;;;;;;;;;;9.80;1.00;;;;;;5086904;28;19912;-75
2023/02/12 16:44:44;;;;;;;;;;;9.80;1.00;;;;;;5085403;28;19912;-75
2023/02/12 16:47:18;;;;;;;;;;;9.70;1.00;;;;;;5101222;28;19921;-77
2023/02/12 16:49:55;;;;;;;;;;;9.70;1.00;;;;;;5094772;28;19908;-77
2023/02/12 16:52:29;;;;;;;;;;;9.70;1.00;;;;;;5080041;28;19912;-76
2023/02/12 16:54:54;;;;;;;;;;;9.60;1.00;;;;;;5095198;28;19991;-75
2023/02/12 16:57:21;;;;;;;;;;;9.60;1.00;;;;;;5084150;28;19947;-75
2023/02/12 16:59:50;;;;;;;;;;;9.60;1.00;;;;;;5078726;28;20248;-75
2023/02/12 17:02:16;;;;;;;;;;;9.60;1.00;;;;;;5089647;28;19912;-75
2023/02/12 17:04:50;;;;;;;;;;;9.60;1.00;;;;;;5093522;28;19912;-76
2023/02/12 17:07:29;;;;;;;;;;;9.60;1.00;;;;;;5084285;28;19955;-75
2023/02/12 17:10:20;;;;;;;;;;;9.50;1.00;;;;;;5093437;28;19908;-75
2023/02/12 17:12:50;;;;;;;;;;;9.50;1.00;;;;;;5093484;28;19912;-75
2023/02/12 17:15:25;;;;;;;;;;;9.50;1.00;;;;;;5093601;28;19938;-75
2023/02/12 17:17:57;;;;;;;;;;;9.50;1.00;;;;;;5096890;28;19908;-75
2023/02/12 17:23:39;;;;;;;;;;;9.40;1.00;;;;;;5086410;28;19965;-75
2023/02/12 17:26:11;;;;;;;;;;;9.40;1.00;;;;;;5084032;28;20374;-75
2023/02/12 17:29:04;;;;;;;;;;;9.30;1.00;;;;;;5089168;28;20370;-75
2023/02/12 17:31:45;;;;;;;;;;;9.30;1.00;;;;;;5089154;28;19950;-77
2023/02/12 17:37:13;;;;;;;;;;;9.10;1.00;;;;;;5096359;28;19914;-77
2023/02/12 17:42:57;;;;;;;;;;;9.10;1.00;;;;;;5087195;28;19919;-77
2023/02/12 17:48:56;;;;;;;;;;;9.00;1.00;;;;;;5083787;28;19919;-82
2023/02/12 17:54:25;;;;;;;;;;;9.00;1.00;;;;;;5076528;28;19914;-76
2023/02/12 17:56:56;;;;;;;;;;;9.00;1.00;;;;;;5082321;28;19994;-76
2023/02/12 17:59:22;;;;;;;;;;;9.10;1.00;;;;;;5096419;28;19958;-76
2023/02/12 18:05:09;;;;;;;;;;;9.20;1.00;;;;;;5075746;28;19915;-76
2023/02/12 18:16:44;;;;;;;;;;;9.40;1.00;;;;;;5077253;28;19923;-76
2023/02/12 18:25:15;;;;;;;;;;;9.40;1.00;;;;;;5083127;28;19969;-77
2023/02/12 18:28:02;;;;;;;;;;;9.50;1.00;;;;;;5078663;28;19923;-77
2023/02/12 18:30:41;;;;;;;;;;;9.50;1.00;;;;;;5081091;28;19995;-76
2023/02/12 18:33:15;;;;;;;;;;;9.50;1.00;;;;;;5083591;28;20007;-76
2023/02/12 18:35:54;;;;;;;;;;;9.50;1.00;;;;;;5094709;28;19915;-78
2023/02/12 18:38:39;;;;;;;;;;;9.60;1.00;;;;;;5095934;28;19908;-76
2023/02/12 18:41:24;;;;;;;;;;;9.60;1.00;;;;;;5088595;28;19916;-78
2023/02/12 18:44:26;;;;;;;;;;;9.60;1.00;;;;;;5094450;28;19912;-78
2023/02/12 18:46:52;;;;;;;;;;;9.60;1.00;;;;;;5095853;28;19963;-77
2023/02/12 18:49:21;;;;;;;;;;;9.60;1.00;;;;;;5106082;28;20317;-78
2023/02/12 18:51:50;;;;;;;;;;;9.60;1.00;;;;;;5082793;28;19908;-78
2023/02/12 18:54:27;;;;;;;;;;;9.60;1.00;;;;;;5095819;28;19908;-77
2023/02/12 18:56:52;;;;;;;;;;;9.60;1.00;;;;;;5095881;28;19987;-76
2023/02/12 19:02:21;;;;;;;;;;;9.60;1.00;;;;;;5086662;28;20048;-75
2023/02/12 19:04:46;;;;;;;;;;;9.60;1.00;;;;;;5095431;28;19964;-75
2023/02/12 19:07:20;;;;;;;;;;;9.70;1.00;;;;;;5095388;28;19912;-75
2023/02/12 19:10:02;;;;;;;;;;;9.70;1.00;;;;;;5094765;28;20047;-75
2023/02/12 19:12:28;;;;;;;;;;;9.70;1.00;;;;;;5093112;28;19916;-75
2023/02/12 19:14:57;;;;;;;;;;;9.70;1.00;;;;;;5086690;28;19917;-75
2023/02/12 19:17:56;;;;;;;;;;;9.70;1.00;;;;;;5077331;28;20002;-78
2023/02/12 19:20:50;;;;;;;;;;;9.70;1.00;;;;;;5091460;28;19912;-77
2023/02/12 19:23:50;;;;;;;;;;;9.70;1.00;;;;;;5085523;28;19955;-77
2023/02/12 19:26:28;;;;;;;;;;;9.70;1.00;;;;;;5075834;28;19966;-78
2023/02/12 19:29:03;;;;;;;;;;;9.80;1.00;;;;;;5087673;28;19912;-76
2023/02/12 19:31:34;;;;;;;;;;;9.70;1.00;;;;;;5067208;28;20273;-75
2023/02/12 19:34:00;;;;;;;;;;;9.80;1.00;;;;;;5077995;28;19915;-86
2023/02/12 19:36:56;;;;;;;;;;;9.70;1.00;;;;;;5095433;28;19908;-86
2023/02/12 19:42:56;;;;;;;;;;;9.70;1.00;;;;;;5095089;28;19914;-86
2023/02/12 19:45:22;;;;;;;;;;;9.70;1.00;;;;;;5074291;28;19916;-86
2023/02/12 19:53:55;;;;;;;;;;;9.70;1.00;;;;;;5075034;28;19920;-86
2023/02/12 19:56:20;;;;;;;;;;;9.60;1.00;;;;;;5064177;28;19914;-85
2023/02/12 20:02:21;;;;;;;;;;;9.70;1.00;;;;;;5074923;28;20386;-86
2023/02/12 20:04:46;;;;;;;;;;;9.60;1.00;;;;;;5091319;28;19999;-75
2023/02/12 20:07:26;;;;;;;;;;;9.60;1.00;;;;;;5094513;28;20410;-75
2023/02/12 20:09:52;;;;;;;;;;;9.60;1.00;;;;;;5093830;28;19920;-75
2023/02/12 20:12:21;;;;;;;;;;;9.60;1.00;;;;;;5082273;28;19981;-75
2023/02/12 20:14:52;;;;;;;;;;;9.60;1.00;;;;;;5084850;28;19999;-75
2023/02/12 20:17:21;;;;;;;;;;;9.60;1.00;;;;;;5088071;28;19915;-76
2023/02/12 20:20:09;;;;;;;;;;;9.60;1.00;;;;;;5094548;28;19923;-76
2023/02/12 20:22:35;;;;;;;;;;;9.60;1.00;;;;;;5077449;28;19912;-75
2023/02/12 20:25:09;;;;;;;;;;;9.60;1.00;;;;;;5079490;28;20363;-75
2023/02/12 20:27:34;;;;;;;;;;;9.60;1.00;;;;;;5078195;28;19980;-76
2023/02/12 20:30:03;;;;;;;;;;;9.60;1.00;;;;;;5083249;28;19909;-76
2023/02/12 20:32:28;;;;;;;;;;;9.60;1.00;;;;;;5087490;28;19960;-85
2023/02/12 20:50:21;;;;;;;;;;;9.60;1.00;;;;;;5104009;28;19958;-76
2023/02/12 20:52:51;;;;;;;;;;;9.50;1.00;;;;;;5085783;28;19947;-76